createdAt,value
2022-08-22T00:03:16.334Z,67.65
2022-08-22T00:05:49.207Z,67.82
2022-08-22T00:08:58.952Z,67.88
2022-08-22T00:12:09.289Z,68.33
2022-08-22T00:14:51.564Z,68.23
2022-08-22T00:17:49.888Z,68.13
2022-08-22T00:20:41.933Z,68.78
2022-08-22T00:23:31.260Z,68.86
2022-08-22T00:26:04.474Z,68.58
2022-08-22T00:28:38.867Z,68.67
2022-08-22T00:31:32.003Z,69.18
2022-08-22T00:34:05.205Z,69.31
2022-08-22T00:36:51.653Z,69.47
2022-08-22T00:39:32.858Z,69.62
2022-08-22T00:42:31.508Z,69.38
2022-08-22T00:45:17.939Z,69.66
2022-08-22T00:48:03.105Z,70.10
2022-08-22T00:50:49.688Z,70.07
2022-08-22T00:53:31.119Z,70.32
2022-08-22T00:56:04.669Z,70.32
2022-08-22T00:59:00.952Z,70.92
2022-08-22T01:02:11.516Z,70.35
2022-08-22T01:05:16.793Z,70.51
2022-08-22T01:08:22.626Z,71.17
2022-08-22T01:11:20.128Z,71.03
2022-08-22T01:14:13.195Z,71.12
2022-08-22T01:17:02.061Z,71.62
2022-08-22T01:20:01.102Z,71.30
2022-08-22T01:23:01.137Z,72.06
2022-08-22T01:25:43.571Z,71.83
2022-08-22T01:28:33.751Z,72.31
2022-08-22T01:31:09.858Z,71.97
2022-08-22T01:34:14.263Z,71.48
2022-08-22T01:37:12.448Z,71.58
2022-08-22T01:39:48.799Z,71.84
2022-08-22T01:42:35.540Z,71.70
2022-08-22T01:45:14.788Z,71.92
2022-08-22T01:48:00.452Z,72.33
2022-08-22T01:50:41.396Z,72.28
2022-08-22T01:53:15.513Z,72.09
2022-08-22T01:55:48.387Z,72.30
2022-08-22T01:58:25.375Z,71.93
2022-08-22T02:01:14.361Z,72.75
2022-08-22T02:04:00.768Z,72.71
2022-08-22T02:06:53.101Z,72.72
2022-08-22T02:09:35.369Z,72.96
2022-08-22T02:12:13.906Z,73.27
2022-08-22T02:15:14.199Z,73.42
2022-08-22T02:18:12.637Z,74.06
2022-08-22T02:20:48.729Z,73.67
2022-08-22T02:23:33.985Z,73.62
2022-08-22T02:26:04.138Z,73.83
2022-08-22T02:28:57.335Z,73.89
2022-08-22T02:32:07.241Z,74.31
2022-08-22T02:34:50.147Z,74.40
2022-08-22T02:37:35.490Z,74.69
2022-08-22T02:40:13.003Z,73.95
2022-08-22T02:42:45.755Z,74.39
2022-08-22T02:45:18.823Z,74.40
2022-08-22T02:47:59.794Z,74.15
2022-08-22T02:50:52.221Z,74.48
2022-08-22T02:53:47.533Z,74.43
2022-08-22T02:56:41.417Z,74.21
2022-08-22T02:59:27.586Z,74.27
2022-08-22T03:01:56.366Z,74.28
2022-08-22T03:04:32.460Z,74.73
2022-08-22T03:07:36.650Z,74.68
2022-08-22T03:10:12.945Z,74.56
2022-08-22T03:12:42.853Z,75.08
2022-08-22T03:15:26.074Z,75.06
2022-08-22T03:17:59.966Z,75.12
2022-08-22T03:20:54.899Z,75.03
2022-08-22T03:23:42.120Z,75.53
2022-08-22T03:26:24.282Z,76.12
2022-08-22T03:28:59.721Z,75.41
2022-08-22T03:31:29.568Z,75.54
2022-08-22T03:34:21.571Z,75.67
2022-08-22T03:37:19.599Z,75.86
2022-08-22T03:40:08.409Z,75.66
2022-08-22T03:43:23.444Z,75.57
2022-08-22T03:46:17.819Z,76.07
2022-08-22T03:49:00.634Z,76.25
2022-08-22T03:51:41.070Z,76.01
2022-08-22T03:54:26.695Z,76.76
2022-08-22T03:57:31.116Z,77.31
2022-08-22T04:00:12.893Z,77.82
2022-08-22T04:02:42.765Z,77.64
2022-08-22T04:05:39.779Z,77.34
2022-08-22T04:08:29.432Z,77.33
2022-08-22T04:11:42.948Z,77.25
2022-08-22T04:14:24.357Z,77.60
2022-08-22T04:17:01.484Z,77.72
2022-08-22T04:19:57.071Z,77.09
2022-08-22T04:22:33.686Z,76.95
2022-08-22T04:25:09.241Z,77.04
2022-08-22T04:27:56.158Z,76.98
2022-08-22T04:30:45.710Z,77.17
2022-08-22T04:33:24.845Z,77.33
2022-08-22T04:35:52.429Z,76.83
2022-08-22T04:38:31.337Z,77.10
2022-08-22T04:41:22.287Z,76.73
2022-08-22T04:43:55.926Z,77.02
2022-08-22T04:46:41.272Z,77.08
2022-08-22T04:49:16.057Z,77.16
2022-08-22T04:51:52.383Z,76.78
2022-08-22T04:55:00.126Z,77.23
2022-08-22T04:57:27.281Z,77.71
2022-08-22T05:00:00.409Z,77.58
2022-08-22T05:02:28.365Z,78.25
2022-08-22T05:05:05.078Z,78.69
2022-08-22T05:07:46.371Z,78.38
2022-08-22T05:10:33.667Z,78.47
2022-08-22T05:13:12.417Z,77.83
2022-08-22T05:15:47.152Z,78.07
2022-08-22T05:18:23.203Z,77.74
2022-08-22T05:20:54.219Z,77.78
2022-08-22T05:23:43.601Z,78.24
2022-08-22T05:26:13.757Z,78.53
2022-08-22T05:29:05.114Z,78.13
2022-08-22T05:31:47.449Z,78.09
2022-08-22T05:34:19.898Z,78.11
2022-08-22T05:36:56.316Z,78.40
2022-08-22T05:39:28.095Z,78.46
2022-08-22T05:41:58.306Z,78.39
2022-08-22T05:44:33.024Z,78.40
2022-08-22T05:47:40.346Z,78.19
2022-08-22T05:50:20.196Z,77.97
2022-08-22T05:53:06.507Z,77.80
2022-08-22T05:55:39.332Z,78.18
2022-08-22T05:58:35.943Z,77.96
2022-08-22T06:01:38.094Z,78.79
2022-08-22T06:04:10.220Z,77.99
2022-08-22T06:07:18.937Z,79.86
2022-08-22T06:09:48.597Z,78.79
2022-08-22T06:12:28.050Z,78.09
2022-08-22T06:15:12.747Z,78.03
2022-08-22T06:17:49.911Z,77.84
2022-08-22T06:20:24.400Z,77.44
2022-08-22T06:22:58.889Z,77.47
2022-08-22T06:25:30.567Z,76.60
2022-08-22T06:28:01.892Z,76.99
2022-08-22T06:30:30.028Z,77.41
2022-08-22T06:33:05.808Z,78.82
2022-08-22T06:36:09.629Z,77.87
2022-08-22T06:39:21.470Z,77.41
2022-08-22T06:42:03.100Z,77.81
2022-08-22T06:44:40.231Z,77.57
2022-08-22T06:47:11.655Z,77.60
2022-08-22T06:49:40.852Z,77.01
2022-08-22T06:52:13.057Z,76.53
2022-08-22T06:54:46.800Z,76.49
2022-08-22T06:57:37.486Z,76.04
2022-08-22T07:00:13.658Z,75.90
2022-08-22T07:02:46.955Z,76.04
2022-08-22T07:05:24.016Z,76.19
2022-08-22T07:07:52.761Z,76.71
2022-08-22T07:10:22.815Z,76.51
2022-08-22T07:12:53.686Z,76.20
2022-08-22T07:15:40.073Z,75.86
2022-08-22T07:18:18.482Z,75.89
2022-08-22T07:20:55.084Z,75.62
2022-08-22T07:23:31.939Z,75.56
2022-08-22T07:26:17.683Z,75.34
2022-08-22T07:28:51.574Z,75.30
2022-08-22T07:31:40.959Z,75.46
2022-08-22T07:34:16.908Z,75.44
2022-08-22T07:37:01.893Z,74.15
2022-08-22T07:40:14.046Z,73.72
2022-08-22T07:42:51.597Z,73.38
2022-08-22T07:45:21.386Z,72.94
2022-08-22T07:48:25.120Z,73.38
2022-08-22T07:51:01.226Z,72.61
2022-08-22T07:53:34.524Z,71.81
2022-08-22T07:56:05.880Z,71.16
2022-08-22T07:58:41.244Z,69.76
2022-08-22T08:01:11.742Z,68.86
2022-08-22T08:03:39.447Z,68.78
2022-08-22T08:06:11.347Z,67.31
2022-08-22T08:08:44.544Z,68.54
2022-08-22T08:11:15.213Z,67.78
2022-08-22T08:13:46.416Z,67.96
2022-08-22T08:16:19.893Z,72.07
2022-08-22T08:18:50.287Z,72.04
2022-08-22T08:21:28.744Z,73.27
2022-08-22T08:23:57.322Z,73.16
2022-08-22T08:27:00.275Z,72.94
2022-08-22T08:29:27.563Z,70.92
2022-08-22T08:31:55.387Z,69.34
2022-08-22T08:34:26.020Z,69.11
2022-08-22T08:37:17.440Z,69.03
2022-08-22T08:40:01.558Z,67.70
2022-08-22T08:43:05.911Z,67.49
2022-08-22T08:46:08.553Z,67.24
2022-08-22T08:48:55.663Z,66.83
2022-08-22T08:51:56.404Z,66.24
2022-08-22T08:54:26.502Z,66.76
2022-08-22T08:57:15.521Z,65.67
2022-08-22T08:59:50.831Z,65.59
2022-08-22T09:02:50.810Z,65.51
2022-08-22T09:05:29.787Z,65.98
2022-08-22T09:08:23.144Z,66.11
2022-08-22T09:11:09.816Z,65.61
2022-08-22T09:13:55.895Z,65.51
2022-08-22T09:16:51.243Z,65.45
2022-08-22T09:19:46.298Z,66.69
2022-08-22T09:25:39.904Z,64.43
2022-08-22T09:28:32.581Z,64.96
2022-08-22T09:31:32.950Z,65.44
2022-08-22T09:34:38.159Z,64.86
2022-08-22T09:37:29.983Z,63.19
2022-08-22T09:40:06.554Z,62.12
2022-08-22T09:40:16.276Z,66.54
2022-08-22T09:43:10.887Z,61.40
2022-08-22T09:45:40.753Z,62.15
2022-08-22T09:48:23.786Z,61.40
2022-08-22T09:51:32.325Z,61.70
2022-08-22T09:57:01.182Z,60.17
2022-08-22T09:59:44.946Z,60.87
2022-08-22T10:02:23.624Z,58.75
2022-08-22T10:04:59.538Z,57.78
2022-08-22T10:07:48.086Z,57.19
2022-08-22T10:10:47.738Z,57.73
2022-08-22T10:13:57.644Z,58.84
2022-08-22T10:16:33.956Z,60.33
2022-08-22T10:19:38.154Z,60.66
2022-08-22T10:22:19.882Z,60.32
2022-08-22T10:25:10.321Z,60.91
2022-08-22T10:27:40.294Z,61.53
2022-08-22T10:30:13.379Z,62.89
2022-08-22T10:33:08.494Z,63.99
2022-08-22T10:36:01.138Z,64.29
2022-08-22T10:38:43.925Z,64.87
2022-08-22T10:41:36.533Z,64.93
2022-08-22T10:44:34.479Z,64.64
2022-08-22T10:47:15.391Z,64.94
2022-08-22T10:49:57.649Z,64.94
2022-08-22T10:52:34.222Z,64.86
2022-08-22T10:55:25.743Z,65.06
2022-08-22T10:58:00.276Z,65.40
2022-08-22T11:00:50.076Z,65.99
2022-08-22T11:03:23.450Z,66.35
2022-08-22T11:05:54.822Z,65.82
2022-08-22T11:08:37.190Z,66.15
2022-08-22T11:11:06.934Z,66.68
2022-08-22T11:13:58.215Z,66.23
2022-08-22T11:16:55.405Z,65.79
2022-08-22T11:19:22.994Z,66.38
2022-08-22T11:22:07.456Z,66.28
2022-08-22T11:25:11.380Z,66.62
2022-08-22T11:28:05.932Z,66.65
2022-08-22T11:30:48.335Z,66.07
2022-08-22T11:33:47.108Z,66.20
2022-08-22T11:36:51.363Z,66.70
2022-08-22T11:39:21.778Z,67.20
2022-08-22T11:41:54.655Z,66.85
2022-08-22T11:44:29.912Z,66.53
2022-08-22T11:46:59.417Z,66.68
2022-08-22T11:49:41.689Z,66.55
2022-08-22T11:52:21.662Z,66.02
2022-08-22T11:55:20.064Z,67.18
2022-08-22T11:57:56.565Z,67.27
2022-08-22T12:00:45.938Z,66.53
2022-08-22T12:03:31.310Z,66.36
2022-08-22T12:06:08.391Z,66.69
2022-08-22T12:08:40.939Z,66.49
2022-08-22T12:11:16.393Z,67.09
2022-08-22T12:14:05.948Z,66.79
2022-08-22T12:17:05.979Z,67.23
2022-08-22T12:20:05.626Z,66.75
2022-08-22T12:22:50.195Z,67.06
2022-08-22T12:25:38.648Z,66.85
2022-08-22T12:28:36.400Z,67.09
2022-08-22T12:31:47.236Z,67.77
2022-08-22T12:34:29.543Z,67.17
2022-08-22T12:37:17.004Z,66.83
2022-08-22T12:39:55.301Z,66.41
2022-08-22T12:42:43.290Z,66.58
2022-08-22T12:45:23.412Z,66.34
2022-08-22T12:48:14.418Z,66.84
2022-08-22T12:50:52.082Z,66.62
2022-08-22T12:53:27.998Z,66.10
2022-08-22T12:56:21.542Z,65.95
2022-08-22T12:59:04.358Z,66.09
2022-08-22T13:01:40.191Z,66.47
2022-08-22T13:04:33.248Z,66.72
2022-08-22T13:07:01.073Z,65.92
2022-08-22T13:09:37.873Z,66.00
2022-08-22T13:12:32.088Z,65.22
2022-08-22T13:15:10.926Z,65.14
2022-08-22T13:17:38.132Z,66.02
2022-08-22T13:20:20.676Z,65.74
2022-08-22T13:22:47.892Z,65.35
2022-08-22T13:25:25.832Z,65.34
2022-08-22T13:28:04.111Z,65.41
2022-08-22T13:30:49.457Z,66.06
2022-08-22T13:33:26.168Z,66.61
2022-08-22T13:35:56.824Z,66.34
2022-08-22T13:38:28.108Z,65.39
2022-08-22T13:40:58.036Z,65.16
2022-08-22T13:43:30.432Z,65.70
2022-08-22T13:46:01.971Z,66.08
2022-08-22T13:48:50.839Z,66.49
2022-08-22T13:51:40.347Z,66.55
2022-08-22T13:54:11.230Z,66.96
2022-08-22T13:56:47.430Z,66.99
2022-08-22T13:59:51.701Z,68.34
2022-08-22T14:02:31.024Z,68.85
2022-08-22T14:05:06.565Z,68.45
2022-08-22T14:07:40.803Z,67.29
2022-08-22T14:10:14.770Z,67.96
2022-08-22T14:12:57.703Z,69.06
2022-08-22T14:15:45.497Z,69.04
2022-08-22T14:18:31.819Z,69.21
2022-08-22T14:21:27.556Z,68.71
2022-08-22T14:23:59.837Z,68.66
2022-08-22T14:26:32.922Z,69.54
2022-08-22T14:29:08.224Z,70.29
2022-08-22T14:31:35.487Z,69.84
2022-08-22T14:34:10.578Z,69.20
2022-08-22T14:36:55.202Z,69.04
2022-08-22T14:39:31.859Z,70.26
2022-08-22T14:42:10.262Z,70.19
2022-08-22T14:45:06.799Z,69.53
2022-08-22T14:47:55.320Z,68.81
2022-08-22T14:50:53.096Z,69.39
2022-08-22T14:53:19.983Z,68.96
2022-08-22T14:56:04.254Z,69.59
2022-08-22T14:58:45.889Z,69.08
2022-08-22T15:01:16.570Z,68.67
2022-08-22T15:03:51.315Z,68.47
2022-08-22T15:06:48.070Z,68.67
2022-08-22T15:09:40.567Z,68.94
2022-08-22T15:12:22.251Z,69.16
2022-08-22T15:14:53.255Z,68.34
2022-08-22T15:17:51.143Z,68.32
2022-08-22T15:20:28.670Z,67.30
2022-08-22T15:23:09.869Z,67.57
2022-08-22T15:25:41.339Z,68.17
2022-08-22T15:28:17.203Z,69.60
2022-08-22T15:31:03.500Z,69.87
2022-08-22T15:33:39.316Z,69.92
2022-08-22T15:36:21.384Z,71.30
2022-08-22T15:38:54.086Z,71.17
2022-08-22T15:41:35.947Z,69.84
2022-08-22T15:44:06.526Z,69.11
2022-08-22T15:46:43.859Z,68.87
2022-08-22T15:49:19.797Z,68.29
2022-08-22T15:52:01.998Z,67.97
2022-08-22T15:54:51.342Z,67.58
2022-08-22T15:57:21.293Z,67.93
2022-08-22T15:59:54.250Z,67.97
2022-08-22T16:02:35.661Z,68.11
2022-08-22T16:05:11.621Z,66.97
2022-08-22T16:07:40.714Z,66.64
2022-08-22T16:10:28.344Z,66.92
2022-08-22T16:13:32.285Z,66.63
2022-08-22T16:16:10.867Z,67.14
2022-08-22T16:18:37.691Z,66.78
2022-08-22T16:21:18.058Z,67.05
2022-08-22T16:23:51.728Z,66.88
2022-08-22T16:26:30.279Z,66.22
2022-08-22T16:29:17.821Z,66.63
2022-08-22T16:31:45.046Z,66.94
2022-08-22T16:34:18.103Z,67.50
2022-08-22T16:37:18.266Z,66.76
2022-08-22T16:39:49.959Z,67.15
2022-08-22T16:42:19.632Z,67.15
2022-08-22T16:45:11.023Z,67.20
2022-08-22T16:47:54.540Z,67.17
2022-08-22T16:51:00.490Z,67.04
2022-08-22T16:53:30.439Z,66.91
2022-08-22T16:56:10.446Z,66.40
2022-08-22T16:58:56.995Z,66.49
2022-08-22T17:01:43.050Z,68.52
2022-08-22T17:05:04.385Z,68.72
2022-08-22T17:07:50.718Z,70.25
2022-08-22T17:10:29.410Z,70.03
2022-08-22T17:13:08.558Z,69.77
2022-08-22T17:15:40.508Z,69.96
2022-08-22T17:18:34.846Z,71.22
2022-08-22T17:21:15.230Z,73.94
2022-08-22T17:24:00.896Z,74.96
2022-08-22T17:26:33.370Z,72.07
2022-08-22T17:29:15.210Z,71.64
2022-08-22T17:31:54.949Z,70.85
2022-08-22T17:34:51.388Z,71.34
2022-08-22T17:37:52.123Z,70.87
2022-08-22T17:40:46.776Z,71.10
2022-08-22T17:43:33.595Z,71.30
2022-08-22T17:46:42.630Z,71.10
2022-08-22T17:49:14.423Z,70.94
2022-08-22T17:51:48.984Z,70.85
2022-08-22T17:54:32.305Z,71.13
2022-08-22T17:57:09.945Z,72.13
2022-08-22T17:59:49.111Z,73.72
2022-08-22T18:02:34.326Z,74.27
2022-08-22T18:05:32.488Z,74.18
2022-08-22T18:11:16.100Z,75.14
2022-08-22T18:13:46.804Z,74.90
2022-08-22T18:16:44.682Z,74.56
2022-08-22T18:19:14.078Z,74.72
2022-08-22T18:21:50.755Z,74.91
2022-08-22T18:24:33.075Z,75.66
2022-08-22T18:27:09.542Z,76.16
2022-08-22T18:30:05.169Z,75.30
2022-08-22T18:32:59.696Z,75.13
2022-08-22T18:35:40.432Z,75.68
2022-08-22T18:38:19.672Z,75.61
2022-08-22T18:41:05.676Z,75.15
2022-08-22T18:43:44.672Z,75.35
2022-08-22T18:46:34.948Z,75.23
2022-08-22T18:49:15.532Z,74.87
2022-08-22T18:51:44.181Z,74.50
2022-08-22T18:54:42.966Z,74.74
2022-08-22T18:57:31.120Z,74.36
2022-08-22T19:00:29.752Z,74.33
2022-08-22T19:03:15.186Z,73.50
2022-08-22T19:06:07.396Z,74.77
2022-08-22T19:09:05.561Z,74.40
2022-08-22T19:11:51.273Z,74.65
2022-08-22T19:14:36.668Z,74.74
2022-08-22T19:17:29.865Z,74.74
2022-08-22T19:20:15.134Z,75.07
2022-08-22T19:22:43.776Z,74.84
2022-08-22T19:25:27.458Z,75.79
2022-08-22T19:27:57.573Z,76.43
2022-08-22T19:30:51.814Z,76.38
2022-08-22T19:33:38.743Z,76.91
2022-08-22T19:36:07.765Z,77.10
2022-08-22T19:38:58.904Z,77.38
2022-08-22T19:41:38.385Z,78.60
2022-08-22T19:44:11.383Z,78.60
2022-08-22T19:46:42.676Z,78.42
2022-08-22T19:49:32.916Z,79.09
2022-08-22T19:52:37.786Z,79.13
2022-08-22T19:55:10.897Z,79.00
2022-08-22T19:58:03.484Z,79.70
2022-08-22T20:00:53.927Z,80.58
2022-08-22T20:03:39.638Z,80.06
2022-08-22T20:06:43.093Z,80.16
2022-08-22T20:09:43.141Z,81.04
2022-08-22T20:12:36.532Z,80.81
2022-08-22T20:15:19.721Z,81.23
2022-08-22T20:18:11.563Z,81.19
2022-08-22T20:20:56.754Z,81.94
2022-08-22T20:23:29.994Z,81.96
2022-08-22T20:25:57.970Z,81.92
2022-08-22T20:28:28.575Z,82.11
2022-08-22T20:31:00.031Z,82.27
2022-08-22T20:33:41.819Z,82.31
2022-08-22T20:36:18.491Z,82.44
2022-08-22T20:39:00.880Z,82.67
2022-08-22T20:41:33.894Z,82.36
2022-08-22T20:44:07.058Z,82.93
2022-08-22T20:46:55.049Z,83.38
2022-08-22T20:49:30.611Z,83.43
2022-08-22T20:52:10.521Z,83.84
2022-08-22T20:54:40.395Z,83.18
2022-08-22T20:57:18.872Z,83.83
2022-08-22T20:59:59.706Z,84.05
2022-08-22T21:02:57.307Z,83.79
2022-08-22T21:05:34.069Z,83.96
2022-08-22T21:08:05.781Z,83.67
2022-08-22T21:10:54.098Z,83.98
2022-08-22T21:13:36.004Z,84.46
2022-08-22T21:16:18.505Z,84.29
2022-08-22T21:18:50.951Z,84.22
2022-08-22T21:21:18.221Z,84.49
2022-08-22T21:24:01.333Z,84.89
2022-08-22T21:26:38.177Z,84.63
2022-08-22T21:29:07.629Z,85.05
2022-08-22T21:31:42.526Z,84.99
2022-08-22T21:34:32.123Z,84.89
2022-08-22T21:37:06.979Z,84.78
2022-08-22T21:39:45.001Z,85.01
2022-08-22T21:42:24.365Z,85.30
2022-08-22T21:45:00.746Z,85.36
2022-08-22T21:47:30.444Z,85.15
2022-08-22T21:50:09.156Z,85.00
2022-08-22T21:52:38.824Z,85.22
2022-08-22T21:55:32.807Z,85.45
2022-08-22T21:58:18.533Z,85.29
2022-08-22T22:01:25.067Z,85.46
2022-08-22T22:03:54.610Z,85.55
2022-08-22T22:06:21.697Z,85.37
2022-08-22T22:08:49.263Z,85.20
2022-08-22T22:11:17.478Z,84.58
2022-08-22T22:13:45.293Z,84.53
2022-08-22T22:16:12.903Z,84.79
2022-08-22T22:18:40.933Z,84.68
2022-08-22T22:21:09.155Z,84.65
2022-08-22T22:23:36.401Z,84.62
2022-08-22T22:26:06.190Z,84.21
2022-08-22T22:28:38.360Z,84.33
2022-08-22T22:31:06.443Z,84.49
2022-08-22T22:33:40.537Z,84.67
2022-08-22T22:36:11.590Z,84.54
2022-08-22T22:38:40.441Z,84.72
2022-08-22T22:41:07.792Z,84.62
2022-08-22T22:43:35.210Z,84.89
2022-08-22T22:46:02.689Z,85.66
2022-08-22T22:48:29.764Z,85.33
2022-08-22T22:50:56.903Z,85.82
2022-08-22T22:53:38.450Z,86.24
2022-08-22T22:56:09.642Z,86.29
2022-08-22T22:58:37.579Z,86.73
2022-08-22T23:01:14.249Z,86.44
2022-08-22T23:03:42.023Z,87.42
2022-08-22T23:06:18.850Z,87.35
2022-08-22T23:08:46.854Z,87.92
2022-08-22T23:11:17.443Z,89.49
2022-08-22T23:13:44.542Z,89.47
2022-08-22T23:16:15.572Z,89.21
2022-08-22T23:18:43.166Z,89.42
2022-08-22T23:21:23.335Z,89.69
2022-08-22T23:23:51.654Z,89.46
2022-08-22T23:26:18.788Z,89.32
2022-08-22T23:28:45.908Z,89.96
2022-08-22T23:31:38.065Z,90.07
2022-08-22T23:34:07.403Z,90.01
2022-08-22T23:36:35.578Z,90.15
2022-08-22T23:39:04.831Z,90.36
2022-08-22T23:41:32.226Z,90.81
2022-08-22T23:43:59.244Z,91.24
2022-08-22T23:46:27.430Z,91.65
2022-08-22T23:48:54.834Z,91.44
2022-08-22T23:51:24.530Z,92.04
2022-08-22T23:53:52.794Z,92.07
2022-08-22T23:56:26.190Z,92.32
2022-08-22T23:58:53.477Z,92.99
